createdAt,value
2018-03-16T00:00:39.110Z,5.82
2018-03-16T00:01:39.119Z,5.81
2018-03-16T00:02:39.072Z,5.71
2018-03-16T00:03:39.052Z,5.78
2018-03-16T00:04:39.054Z,5.83
2018-03-16T00:05:39.060Z,5.82
2018-03-16T00:06:38.984Z,5.65
2018-03-16T00:07:38.965Z,5.60
2018-03-16T00:08:38.953Z,5.63
2018-03-16T00:09:38.923Z,5.64
2018-03-16T00:10:38.906Z,5.60
2018-03-16T00:11:38.884Z,5.60
2018-03-16T00:12:38.861Z,5.72
2018-03-16T00:13:38.843Z,5.65
2018-03-16T00:14:38.817Z,5.51
2018-03-16T00:15:38.797Z,5.58
2018-03-16T00:16:38.777Z,5.54
2018-03-16T00:17:38.774Z,5.63
2018-03-16T00:18:38.737Z,5.51
2018-03-16T00:19:38.722Z,5.57
2018-03-16T00:20:38.693Z,5.54
2018-03-16T00:21:38.677Z,5.53
2018-03-16T00:22:38.653Z,5.43
2018-03-16T00:23:38.629Z,5.43
2018-03-16T00:24:38.611Z,5.46
2018-03-16T00:25:38.601Z,5.42
2018-03-16T00:26:38.572Z,5.35
2018-03-16T00:27:38.550Z,5.46
2018-03-16T00:28:38.526Z,5.38
2018-03-16T00:29:38.507Z,5.35
2018-03-16T00:30:38.486Z,5.38
2018-03-16T00:31:38.464Z,5.35
2018-03-16T00:32:38.451Z,5.33
2018-03-16T00:33:38.427Z,5.42
2018-03-16T00:34:38.407Z,5.36
2018-03-16T00:35:38.383Z,5.39
2018-03-16T00:36:38.367Z,5.35
2018-03-16T00:37:38.347Z,5.38
2018-03-16T00:38:38.318Z,5.38
2018-03-16T00:39:38.298Z,5.31
2018-03-16T00:40:38.276Z,5.43
2018-03-16T00:41:38.257Z,5.39
2018-03-16T00:42:38.240Z,5.31
2018-03-16T00:43:38.215Z,5.38
2018-03-16T00:44:38.192Z,5.31
2018-03-16T00:45:38.173Z,5.28
2018-03-16T00:46:38.149Z,5.36
2018-03-16T00:47:38.134Z,5.25
2018-03-16T00:48:38.107Z,5.21
2018-03-16T00:49:38.088Z,5.27
2018-03-16T00:50:38.068Z,5.28
2018-03-16T00:51:38.044Z,5.31
2018-03-16T00:52:38.024Z,5.28
2018-03-16T00:53:38.007Z,5.35
2018-03-16T00:54:37.992Z,5.33
2018-03-16T00:55:37.968Z,5.24
2018-03-16T00:56:37.944Z,5.31
2018-03-16T00:57:37.927Z,5.27
2018-03-16T00:58:37.909Z,5.30
2018-03-16T00:59:37.879Z,5.25
2018-03-16T01:00:37.858Z,5.36
2018-03-16T01:01:37.836Z,5.33
2018-03-16T01:02:37.827Z,5.31
2018-03-16T01:03:37.795Z,5.40
2018-03-16T01:04:37.776Z,5.30
2018-03-16T01:05:37.754Z,5.31
2018-03-16T01:06:37.738Z,5.40
2018-03-16T01:07:37.712Z,5.31
2018-03-16T01:08:37.701Z,5.30
2018-03-16T01:09:37.672Z,5.36
2018-03-16T01:10:37.648Z,5.45
2018-03-16T01:11:37.631Z,5.31
2018-03-16T01:12:37.611Z,5.35
2018-03-16T01:13:37.590Z,5.33
2018-03-16T01:14:37.577Z,5.30
2018-03-16T01:15:37.550Z,5.31
2018-03-16T01:16:37.530Z,5.39
2018-03-16T01:17:37.504Z,5.25
2018-03-16T01:18:37.483Z,5.25
2018-03-16T01:19:37.467Z,5.12
2018-03-16T01:20:37.443Z,5.18
2018-03-16T01:21:37.420Z,5.09
2018-03-16T01:22:37.406Z,5.09
2018-03-16T01:23:37.376Z,5.10
2018-03-16T01:24:37.360Z,5.15
2018-03-16T01:25:37.338Z,5.13
2018-03-16T01:26:37.319Z,5.18
2018-03-16T01:27:37.293Z,5.12
2018-03-16T01:28:37.276Z,5.10
2018-03-16T01:29:37.256Z,5.09
2018-03-16T01:30:37.236Z,5.12
2018-03-16T01:31:37.211Z,5.15
2018-03-16T01:32:37.188Z,5.10
2018-03-16T01:33:37.171Z,5.13
2018-03-16T01:34:37.147Z,5.17
2018-03-16T01:35:37.124Z,5.06
2018-03-16T01:36:37.104Z,5.09
2018-03-16T01:37:37.088Z,5.07
2018-03-16T01:38:37.070Z,5.10
2018-03-16T01:39:37.040Z,5.15
2018-03-16T01:40:37.025Z,5.17
2018-03-16T01:41:37.005Z,5.04
2018-03-16T01:42:36.988Z,5.13
2018-03-16T01:43:36.960Z,5.13
2018-03-16T01:44:36.938Z,5.13
2018-03-16T01:45:36.916Z,5.15
2018-03-16T01:46:36.961Z,5.15
2018-03-16T01:47:36.879Z,5.17
2018-03-16T01:48:36.850Z,5.17
2018-03-16T01:49:36.832Z,5.09
2018-03-16T01:50:36.813Z,5.06
2018-03-16T01:51:36.788Z,5.03
2018-03-16T01:52:36.767Z,5.03
2018-03-16T01:53:36.749Z,5.06
2018-03-16T01:54:36.724Z,5.00
2018-03-16T01:55:36.706Z,5.00
2018-03-16T01:56:36.687Z,5.09
2018-03-16T01:57:36.706Z,5.07
2018-03-16T01:58:36.648Z,5.12
2018-03-16T01:59:36.634Z,5.17
2018-03-16T02:00:36.597Z,5.15
2018-03-16T02:01:36.578Z,5.21
2018-03-16T02:02:36.557Z,5.18
2018-03-16T02:03:36.537Z,5.15
2018-03-16T02:04:36.517Z,5.10
2018-03-16T02:05:36.495Z,5.13
2018-03-16T02:06:36.472Z,5.10
2018-03-16T02:07:36.457Z,5.15
2018-03-16T02:08:36.432Z,5.07
2018-03-16T02:09:36.414Z,5.17
2018-03-16T02:10:36.391Z,5.12
2018-03-16T02:11:36.366Z,5.12
2018-03-16T02:12:36.347Z,5.13
2018-03-16T02:13:36.326Z,5.15
2018-03-16T02:14:36.305Z,5.09
2018-03-16T02:15:36.288Z,5.07
2018-03-16T02:16:36.266Z,5.03
2018-03-16T02:17:36.242Z,5.02
2018-03-16T02:18:36.221Z,5.02
2018-03-16T02:19:36.202Z,5.02
2018-03-16T02:20:36.177Z,5.04
2018-03-16T02:21:36.158Z,5.06
2018-03-16T02:22:36.136Z,5.04
2018-03-16T02:23:36.114Z,5.06
2018-03-16T02:24:36.096Z,4.94
2018-03-16T02:25:36.081Z,5.02
2018-03-16T02:26:36.053Z,5.04
2018-03-16T02:27:36.036Z,5.07
2018-03-16T02:28:36.012Z,5.02
2018-03-16T02:29:35.988Z,5.03
2018-03-16T02:30:35.968Z,5.04
2018-03-16T02:31:35.952Z,5.00
2018-03-16T02:32:35.926Z,4.99
2018-03-16T02:33:35.905Z,4.97
2018-03-16T02:34:35.886Z,4.92
2018-03-16T02:35:35.871Z,4.96
2018-03-16T02:36:35.845Z,4.91
2018-03-16T02:37:35.820Z,4.96
2018-03-16T02:38:35.812Z,4.96
2018-03-16T02:39:35.778Z,4.89
2018-03-16T02:40:35.760Z,4.92
2018-03-16T02:41:35.735Z,4.94
2018-03-16T02:42:35.722Z,4.94
2018-03-16T02:43:35.696Z,4.92
2018-03-16T02:44:35.677Z,4.96
2018-03-16T02:45:35.657Z,4.99
2018-03-16T02:46:35.636Z,4.97
2018-03-16T02:47:35.611Z,4.91
2018-03-16T02:48:35.592Z,4.96
2018-03-16T02:49:35.569Z,4.88
2018-03-16T02:50:35.553Z,4.92
2018-03-16T02:51:35.533Z,4.92
2018-03-16T02:52:35.507Z,4.91
2018-03-16T02:53:35.484Z,4.99
2018-03-16T02:54:35.472Z,4.85
2018-03-16T02:55:35.450Z,4.89
2018-03-16T02:56:35.419Z,4.92
2018-03-16T02:57:35.400Z,4.86
2018-03-16T02:58:35.380Z,4.92
2018-03-16T02:59:35.358Z,4.84
2018-03-16T03:00:35.342Z,4.82
2018-03-16T03:01:35.317Z,4.91
2018-03-16T03:02:35.293Z,4.89
2018-03-16T03:03:35.273Z,4.94
2018-03-16T03:04:35.259Z,4.92
2018-03-16T03:05:35.228Z,4.89
2018-03-16T03:06:35.215Z,4.89
2018-03-16T03:07:35.186Z,4.84
2018-03-16T03:08:35.172Z,4.88
2018-03-16T03:09:35.147Z,4.86
2018-03-16T03:10:35.128Z,4.86
2018-03-16T03:11:35.102Z,4.88
2018-03-16T03:12:35.088Z,4.80
2018-03-16T03:13:35.062Z,4.89
2018-03-16T03:14:35.049Z,4.91
2018-03-16T03:15:35.020Z,4.92
2018-03-16T03:16:34.998Z,4.86
2018-03-16T03:17:34.977Z,4.99
2018-03-16T03:18:34.958Z,4.88
2018-03-16T03:19:34.937Z,4.86
2018-03-16T03:20:34.911Z,4.91
2018-03-16T03:21:34.898Z,4.82
2018-03-16T03:22:34.874Z,4.92
2018-03-16T03:23:34.850Z,4.84
2018-03-16T03:24:34.832Z,4.84
2018-03-16T03:25:34.808Z,4.84
2018-03-16T03:26:34.789Z,4.85
2018-03-16T03:27:34.773Z,4.82
2018-03-16T03:28:34.749Z,4.78
2018-03-16T03:29:34.725Z,4.85
2018-03-16T03:30:34.712Z,4.82
2018-03-16T03:31:34.685Z,4.77
2018-03-16T03:32:34.662Z,4.88
2018-03-16T03:33:34.640Z,4.86
2018-03-16T03:34:34.620Z,4.91
2018-03-16T03:35:34.598Z,4.89
2018-03-16T03:36:34.578Z,4.89
2018-03-16T03:37:34.556Z,4.91
2018-03-16T03:38:34.534Z,4.86
2018-03-16T03:39:34.513Z,4.91
2018-03-16T03:40:34.496Z,4.89
2018-03-16T03:41:34.472Z,4.84
2018-03-16T03:42:34.453Z,4.84
2018-03-16T03:43:34.428Z,4.78
2018-03-16T03:44:34.407Z,4.85
2018-03-16T03:45:34.388Z,4.91
2018-03-16T03:46:34.367Z,4.88
2018-03-16T03:47:34.344Z,4.86
2018-03-16T03:48:34.325Z,4.75
2018-03-16T03:49:34.304Z,4.84
2018-03-16T03:50:34.282Z,4.82
2018-03-16T03:51:34.257Z,4.86
2018-03-16T03:52:34.238Z,4.80
2018-03-16T03:53:34.218Z,4.85
2018-03-16T03:54:34.198Z,4.84
2018-03-16T03:55:34.177Z,4.84
2018-03-16T03:56:34.152Z,4.84
2018-03-16T03:57:34.134Z,4.85
2018-03-16T03:58:34.110Z,4.84
2018-03-16T03:59:34.091Z,4.94
2018-03-16T04:00:34.068Z,4.88
2018-03-16T04:01:34.050Z,4.88
2018-03-16T04:02:34.027Z,4.84
2018-03-16T04:03:34.005Z,4.78
2018-03-16T04:04:33.988Z,4.86
2018-03-16T04:05:33.969Z,4.82
2018-03-16T04:06:33.942Z,4.82
2018-03-16T04:07:33.922Z,4.78
2018-03-16T04:08:33.902Z,4.88
2018-03-16T04:09:33.878Z,4.72
2018-03-16T04:10:33.858Z,4.82
2018-03-16T04:11:33.835Z,4.85
2018-03-16T04:12:33.822Z,4.78
2018-03-16T04:13:33.794Z,4.72
2018-03-16T04:14:33.774Z,4.77
2018-03-16T04:15:33.751Z,4.73
2018-03-16T04:16:33.732Z,4.75
2018-03-16T04:17:33.712Z,4.75
2018-03-16T04:18:33.689Z,4.80
2018-03-16T04:19:33.665Z,4.77
2018-03-16T04:20:33.647Z,4.77
2018-03-16T04:21:33.625Z,4.78
2018-03-16T04:22:33.609Z,4.69
2018-03-16T04:23:33.585Z,4.75
2018-03-16T04:24:33.605Z,4.66
2018-03-16T04:25:33.545Z,4.66
2018-03-16T04:26:33.523Z,4.73
2018-03-16T04:27:33.500Z,4.70
2018-03-16T04:28:33.478Z,4.75
2018-03-16T04:29:33.457Z,4.75
2018-03-16T04:30:33.439Z,4.67
2018-03-16T04:31:33.414Z,4.69
2018-03-16T04:32:33.394Z,4.63
2018-03-16T04:33:33.370Z,4.78
2018-03-16T04:34:33.348Z,4.65
2018-03-16T04:35:33.330Z,4.70
2018-03-16T04:36:33.309Z,4.63
2018-03-16T04:37:33.288Z,4.77
2018-03-16T04:38:33.267Z,4.69
2018-03-16T04:39:33.243Z,4.66
2018-03-16T04:40:33.220Z,4.69
2018-03-16T04:41:33.200Z,4.65
2018-03-16T04:42:33.180Z,4.66
2018-03-16T04:43:33.178Z,4.73
2018-03-16T04:44:33.190Z,4.67
2018-03-16T04:45:33.117Z,4.72
2018-03-16T04:46:33.095Z,4.72
2018-03-16T04:47:33.081Z,4.67
2018-03-16T04:48:33.057Z,4.63
2018-03-16T04:49:33.030Z,4.59
2018-03-16T04:50:33.011Z,4.73
2018-03-16T04:51:32.992Z,4.65
2018-03-16T04:52:32.966Z,4.72
2018-03-16T04:53:32.946Z,4.69
2018-03-16T04:54:32.926Z,4.69
2018-03-16T04:55:32.906Z,4.58
2018-03-16T04:56:32.881Z,4.65
2018-03-16T04:57:32.860Z,4.63
2018-03-16T04:58:32.836Z,4.60
2018-03-16T04:59:32.817Z,4.63
2018-03-16T05:00:32.799Z,4.65
2018-03-16T05:01:32.778Z,4.66
2018-03-16T05:02:32.755Z,4.69
2018-03-16T05:03:32.733Z,4.63
2018-03-16T05:04:32.720Z,4.58
2018-03-16T05:05:32.693Z,4.69
2018-03-16T05:06:32.671Z,4.63
2018-03-16T05:07:32.655Z,4.63
2018-03-16T05:08:32.628Z,4.62
2018-03-16T05:09:32.610Z,4.65
2018-03-16T05:10:32.587Z,4.58
2018-03-16T05:11:32.565Z,4.54
2018-03-16T05:12:32.540Z,4.60
2018-03-16T05:13:32.531Z,4.66
2018-03-16T05:14:32.503Z,4.67
2018-03-16T05:15:32.479Z,4.59
2018-03-16T05:16:32.455Z,4.69
2018-03-16T05:17:32.437Z,4.69
2018-03-16T05:18:32.412Z,4.72
2018-03-16T05:19:32.391Z,4.66
2018-03-16T05:20:32.371Z,4.63
2018-03-16T05:21:32.351Z,4.69
2018-03-16T05:22:32.335Z,4.60
2018-03-16T05:23:32.310Z,4.58
2018-03-16T05:24:32.286Z,4.58
2018-03-16T05:25:32.268Z,4.60
2018-03-16T05:26:32.248Z,4.69
2018-03-16T05:27:32.225Z,4.59
2018-03-16T05:28:32.202Z,4.62
2018-03-16T05:29:32.179Z,4.65
2018-03-16T05:30:32.162Z,4.55
2018-03-16T05:31:32.138Z,4.59
2018-03-16T05:32:32.116Z,4.65
2018-03-16T05:33:32.093Z,4.69
2018-03-16T05:34:32.074Z,4.59
2018-03-16T05:35:32.054Z,4.58
2018-03-16T05:36:32.036Z,4.60
2018-03-16T05:37:32.009Z,4.44
2018-03-16T05:38:31.987Z,4.55
2018-03-16T05:39:31.966Z,4.45
2018-03-16T05:40:31.948Z,4.52
2018-03-16T05:41:31.922Z,4.59
2018-03-16T05:42:31.902Z,4.60
2018-03-16T05:43:31.888Z,4.66
2018-03-16T05:44:31.859Z,4.51
2018-03-16T05:45:31.835Z,4.45
2018-03-16T05:46:31.824Z,4.44
2018-03-16T05:47:31.794Z,4.51
2018-03-16T05:48:31.776Z,4.51
2018-03-16T05:49:31.753Z,4.45
2018-03-16T05:50:31.734Z,4.44
2018-03-16T05:51:31.707Z,4.62
2018-03-16T05:52:31.688Z,4.45
2018-03-16T05:53:31.674Z,4.48
2018-03-16T05:54:31.648Z,4.45
2018-03-16T05:55:31.625Z,4.44
2018-03-16T05:56:31.608Z,4.45
2018-03-16T05:57:31.580Z,4.50
2018-03-16T05:58:31.560Z,4.44
2018-03-16T05:59:31.538Z,4.48
2018-03-16T06:00:31.521Z,4.54
2018-03-16T06:01:31.494Z,4.47
2018-03-16T06:02:31.474Z,4.47
2018-03-16T06:03:31.450Z,4.52
2018-03-16T06:04:31.433Z,4.48
2018-03-16T06:05:31.411Z,4.42
2018-03-16T06:06:31.391Z,4.52
2018-03-16T06:07:31.367Z,4.47
2018-03-16T06:08:31.344Z,4.45
2018-03-16T06:09:31.322Z,4.52
2018-03-16T06:10:31.300Z,4.47
2018-03-16T06:11:31.293Z,4.48
2018-03-16T06:12:31.257Z,4.45
2018-03-16T06:13:31.252Z,4.50
2018-03-16T06:14:31.214Z,4.44
2018-03-16T06:15:31.201Z,4.48
2018-03-16T06:16:31.174Z,4.54
2018-03-16T06:17:31.153Z,4.51
2018-03-16T06:18:31.134Z,4.50
2018-03-16T06:19:31.107Z,4.36
2018-03-16T06:20:31.088Z,4.50
2018-03-16T06:21:31.070Z,4.34
2018-03-16T06:22:31.048Z,4.29
2018-03-16T06:23:31.025Z,4.40
2018-03-16T06:24:30.999Z,4.44
2018-03-16T06:25:30.985Z,4.37
2018-03-16T06:26:30.957Z,4.32
2018-03-16T06:27:30.940Z,4.36
2018-03-16T06:28:30.918Z,4.42
2018-03-16T06:29:30.894Z,4.34
2018-03-16T06:30:30.920Z,4.32
2018-03-16T06:31:30.851Z,4.33
2018-03-16T06:32:30.828Z,4.37
2018-03-16T06:33:30.807Z,4.37
2018-03-16T06:34:30.788Z,4.41
2018-03-16T06:35:30.770Z,4.29
2018-03-16T06:36:30.742Z,4.36
2018-03-16T06:37:30.724Z,4.40
2018-03-16T06:38:30.700Z,4.34
2018-03-16T06:39:30.681Z,4.36
2018-03-16T06:40:30.658Z,4.32
2018-03-16T06:41:30.636Z,4.40
2018-03-16T06:42:30.616Z,4.34
2018-03-16T06:43:30.593Z,4.44
2018-03-16T06:44:30.575Z,4.34
2018-03-16T06:45:30.553Z,4.41
2018-03-16T06:46:30.526Z,4.36
2018-03-16T06:47:30.508Z,4.41
2018-03-16T06:48:30.485Z,4.30
2018-03-16T06:49:30.463Z,4.34
2018-03-16T06:50:30.451Z,4.34
2018-03-16T06:51:30.430Z,4.32
2018-03-16T06:52:30.402Z,4.32
2018-03-16T06:53:30.375Z,4.29
2018-03-16T06:54:30.358Z,4.30
2018-03-16T06:55:30.340Z,4.32
2018-03-16T06:56:30.314Z,4.40
2018-03-16T06:57:30.292Z,4.30
2018-03-16T06:58:30.277Z,4.30
2018-03-16T06:59:30.247Z,4.32
2018-03-16T07:00:30.227Z,4.27
2018-03-16T07:01:30.205Z,4.32
2018-03-16T07:02:30.199Z,4.32
2018-03-16T07:03:30.162Z,4.29
2018-03-16T07:04:30.140Z,4.26
2018-03-16T07:05:30.117Z,4.29
2018-03-16T07:06:30.098Z,4.24
2018-03-16T07:07:30.076Z,4.26
2018-03-16T07:08:30.052Z,4.22
2018-03-16T07:09:30.033Z,4.33
2018-03-16T07:10:30.012Z,4.27
2018-03-16T07:11:29.988Z,4.29
2018-03-16T07:12:29.966Z,4.24
2018-03-16T07:13:29.946Z,4.33
2018-03-16T07:14:29.925Z,4.29
2018-03-16T07:15:29.902Z,4.20
2018-03-16T07:16:29.887Z,4.16
2018-03-16T07:17:29.913Z,4.16
2018-03-16T07:18:29.839Z,4.24
2018-03-16T07:19:29.814Z,4.16
2018-03-16T07:20:29.791Z,4.16
2018-03-16T07:21:29.776Z,4.22
2018-03-16T07:22:29.750Z,4.20
2018-03-16T07:23:29.727Z,4.23
2018-03-16T07:24:29.707Z,4.22
2018-03-16T07:25:29.688Z,4.15
2018-03-16T07:26:29.663Z,4.16
2018-03-16T07:27:29.641Z,4.23
2018-03-16T07:28:29.623Z,4.32
2018-03-16T07:29:29.601Z,4.20
2018-03-16T07:30:29.578Z,4.09
2018-03-16T07:31:29.553Z,4.12
2018-03-16T07:32:29.532Z,4.11
2018-03-16T07:33:29.512Z,4.16
2018-03-16T07:34:29.491Z,4.24
2018-03-16T07:35:29.530Z,4.20
2018-03-16T07:36:29.449Z,4.29
2018-03-16T07:37:29.427Z,4.26
2018-03-16T07:38:29.404Z,4.20
2018-03-16T07:39:29.381Z,4.16
2018-03-16T07:40:29.364Z,4.16
2018-03-16T07:41:29.350Z,4.23
2018-03-16T07:42:29.316Z,4.16
2018-03-16T07:43:29.294Z,4.23
2018-03-16T07:44:29.275Z,4.22
2018-03-16T07:45:29.253Z,4.23
2018-03-16T07:46:29.229Z,4.23
2018-03-16T07:47:29.209Z,4.20
2018-03-16T07:48:29.187Z,4.15
2018-03-16T07:49:29.165Z,4.08
2018-03-16T07:50:29.160Z,4.16
2018-03-16T07:51:29.124Z,4.12
2018-03-16T07:52:29.098Z,4.22
2018-03-16T07:53:29.080Z,4.16
2018-03-16T07:54:29.057Z,4.11
2018-03-16T07:55:29.037Z,4.12
2018-03-16T07:57:28.993Z,4.22
2018-03-16T07:58:28.976Z,4.09
2018-03-16T07:59:28.948Z,4.12
2018-03-16T08:00:28.927Z,4.11
2018-03-16T08:01:28.912Z,4.09
2018-03-16T08:02:28.887Z,4.15
2018-03-16T08:03:28.865Z,4.22
2018-03-16T08:04:28.837Z,4.16
2018-03-16T08:05:28.819Z,4.15
2018-03-16T08:06:28.798Z,4.16
2018-03-16T08:07:28.780Z,4.16
2018-03-16T08:08:28.755Z,4.14
2018-03-16T08:09:28.734Z,4.12
2018-03-16T08:10:28.710Z,4.15
2018-03-16T08:11:28.686Z,4.11
2018-03-16T08:12:28.667Z,4.11
2018-03-16T08:13:28.654Z,4.12
2018-03-16T08:14:28.621Z,4.23
2018-03-16T08:15:28.604Z,4.16
2018-03-16T08:16:28.578Z,4.24
2018-03-16T08:17:28.556Z,4.09
2018-03-16T08:18:28.541Z,4.18
2018-03-16T08:19:28.517Z,4.16
2018-03-16T08:20:28.493Z,4.18
2018-03-16T08:21:28.470Z,4.15
2018-03-16T08:22:28.509Z,4.18
2018-03-16T08:23:28.429Z,4.23
2018-03-16T08:24:28.404Z,4.14
2018-03-16T08:25:28.386Z,4.26
2018-03-16T08:26:28.370Z,4.11
2018-03-16T08:27:28.341Z,4.12
2018-03-16T08:28:28.321Z,4.11
2018-03-16T08:29:28.299Z,4.15
2018-03-16T08:30:28.276Z,4.14
2018-03-16T08:31:28.257Z,4.06
2018-03-16T08:32:28.233Z,4.08
2018-03-16T08:33:28.208Z,4.05
2018-03-16T08:34:28.188Z,4.09
2018-03-16T08:35:28.168Z,4.09
2018-03-16T08:36:28.144Z,4.02
2018-03-16T08:37:28.121Z,4.06
2018-03-16T08:38:28.102Z,4.05
2018-03-16T08:39:28.081Z,4.04
2018-03-16T08:40:28.057Z,3.98
2018-03-16T08:41:28.038Z,4.04
2018-03-16T08:42:28.014Z,4.04
2018-03-16T08:43:27.991Z,4.08
2018-03-16T08:44:27.967Z,4.08
2018-03-16T08:45:27.951Z,4.04
2018-03-16T08:46:27.926Z,4.06
2018-03-16T08:47:27.912Z,4.04
2018-03-16T08:48:27.884Z,4.05
2018-03-16T08:49:27.858Z,4.05
2018-03-16T08:50:27.837Z,4.06
2018-03-16T08:51:27.818Z,4.12
2018-03-16T08:52:27.801Z,4.14
2018-03-16T08:53:27.778Z,4.05
2018-03-16T08:54:27.751Z,4.05
2018-03-16T08:55:27.726Z,4.04
2018-03-16T08:56:27.712Z,4.08
2018-03-16T08:57:27.687Z,4.08
2018-03-16T08:58:27.665Z,4.04
2018-03-16T08:59:27.653Z,4.00
2018-03-16T09:00:27.619Z,4.09
2018-03-16T09:01:27.597Z,4.04
2018-03-16T09:02:27.578Z,4.08
2018-03-16T09:03:27.552Z,3.97
2018-03-16T09:04:27.536Z,3.94
2018-03-16T09:05:27.514Z,3.90
2018-03-16T09:06:27.491Z,3.91
2018-03-16T09:07:27.469Z,3.98
2018-03-16T09:08:27.449Z,3.94
2018-03-16T09:09:27.426Z,3.96
2018-03-16T09:10:27.411Z,3.93
2018-03-16T09:11:27.382Z,3.97
2018-03-16T09:12:27.418Z,4.04
2018-03-16T09:13:27.343Z,4.02
2018-03-16T09:14:27.315Z,4.06
2018-03-16T09:15:27.292Z,4.04
2018-03-16T09:16:27.270Z,4.05
2018-03-16T09:17:27.250Z,4.16
2018-03-16T09:18:27.229Z,4.05
2018-03-16T09:19:27.209Z,3.98
2018-03-16T09:20:27.192Z,3.91
2018-03-16T09:21:27.158Z,3.93
2018-03-16T09:22:27.146Z,4.05
2018-03-16T09:23:27.121Z,4.06
2018-03-16T09:24:27.102Z,4.06
2018-03-16T09:25:27.088Z,3.98
2018-03-16T09:26:27.055Z,4.06
2018-03-16T09:27:27.030Z,4.09
2018-03-16T09:28:27.006Z,4.04
2018-03-16T09:29:26.985Z,4.04
2018-03-16T09:30:26.974Z,4.04
2018-03-16T09:31:26.944Z,4.04
2018-03-16T09:32:26.920Z,4.02
2018-03-16T09:33:26.898Z,3.97
2018-03-16T09:34:26.878Z,3.94
2018-03-16T09:35:26.868Z,3.93
2018-03-16T09:36:26.833Z,3.87
2018-03-16T09:37:26.814Z,3.87
2018-03-16T09:38:26.788Z,3.84
2018-03-16T09:39:26.770Z,3.96
2018-03-16T09:40:26.743Z,4.00
2018-03-16T09:41:26.723Z,4.06
2018-03-16T09:42:26.710Z,4.06
2018-03-16T09:43:26.678Z,4.04
2018-03-16T09:44:26.670Z,4.02
2018-03-16T09:45:26.638Z,4.02
2018-03-16T09:46:26.619Z,4.05
2018-03-16T09:47:26.591Z,3.91
2018-03-16T09:48:26.572Z,3.93
2018-03-16T09:49:26.553Z,3.79
2018-03-16T09:50:26.527Z,3.76
2018-03-16T09:51:26.507Z,3.73
2018-03-16T09:52:26.487Z,3.70
2018-03-16T09:53:26.466Z,3.66
2018-03-16T09:54:26.445Z,3.65
2018-03-16T09:55:26.433Z,3.66
2018-03-16T09:56:26.398Z,3.68
2018-03-16T09:57:26.375Z,3.72
2018-03-16T09:58:26.350Z,3.72
2018-03-16T09:59:26.330Z,3.70
2018-03-16T10:00:26.326Z,3.58
2018-03-16T10:01:26.288Z,3.57
2018-03-16T10:02:26.268Z,3.60
2018-03-16T10:03:26.240Z,3.58
2018-03-16T10:04:26.227Z,3.61
2018-03-16T10:05:26.196Z,3.57
2018-03-16T10:06:26.178Z,3.62
2018-03-16T10:07:26.163Z,3.52
2018-03-16T10:08:26.129Z,3.54
2018-03-16T10:09:26.117Z,3.54
2018-03-16T10:10:26.097Z,3.54
2018-03-16T10:11:26.062Z,3.60
2018-03-16T10:12:26.041Z,3.57
2018-03-16T10:13:26.019Z,3.62
2018-03-16T10:14:26.005Z,3.72
2018-03-16T10:15:25.977Z,3.72
2018-03-16T10:16:25.963Z,3.72
2018-03-16T10:17:25.932Z,3.76
2018-03-16T10:18:25.915Z,3.83
2018-03-16T10:19:25.890Z,3.76
2018-03-16T10:20:25.866Z,3.65
2018-03-16T10:21:25.854Z,3.57
2018-03-16T10:22:25.820Z,3.58
2018-03-16T10:23:25.799Z,3.52
2018-03-16T10:24:25.776Z,3.52
2018-03-16T10:25:25.760Z,3.45
2018-03-16T10:26:25.735Z,3.42
2018-03-16T10:27:25.710Z,3.47
2018-03-16T10:28:25.689Z,3.47
2018-03-16T10:29:25.676Z,3.47
2018-03-16T10:30:25.646Z,3.45
2018-03-16T10:31:25.626Z,3.47
2018-03-16T10:32:25.601Z,3.52
2018-03-16T10:33:25.583Z,3.52
2018-03-16T10:34:25.586Z,3.51
2018-03-16T10:35:25.536Z,3.47
2018-03-16T10:36:25.521Z,3.39
2018-03-16T10:37:25.493Z,3.51
2018-03-16T10:38:25.479Z,3.50
2018-03-16T10:39:25.444Z,3.55
2018-03-16T10:40:25.425Z,3.45
2018-03-16T10:41:25.401Z,3.42
2018-03-16T10:42:25.386Z,3.48
2018-03-16T10:43:25.355Z,3.45
2018-03-16T10:44:25.336Z,3.51
2018-03-16T10:45:25.317Z,3.50
2018-03-16T10:46:25.301Z,3.52
2018-03-16T10:47:25.266Z,3.43
2018-03-16T10:48:25.249Z,3.47
2018-03-16T10:49:25.227Z,3.57
2018-03-16T10:50:25.202Z,3.72
2018-03-16T10:51:25.184Z,3.52
2018-03-16T10:52:25.171Z,3.42
2018-03-16T10:53:25.138Z,3.48
2018-03-16T10:54:25.120Z,3.47
2018-03-16T10:55:25.096Z,3.39
2018-03-16T10:56:25.070Z,3.50
2018-03-16T10:57:25.053Z,3.43
2018-03-16T10:58:25.029Z,3.35
2018-03-16T10:59:25.012Z,3.39
2018-03-16T11:00:24.981Z,3.35
2018-03-16T11:01:24.961Z,3.51
2018-03-16T11:02:24.939Z,3.36
2018-03-16T11:03:24.919Z,3.43
2018-03-16T11:04:24.905Z,3.39
2018-03-16T11:05:24.872Z,3.43
2018-03-16T11:06:24.852Z,3.40
2018-03-16T11:07:24.824Z,3.35
2018-03-16T11:08:24.801Z,3.39
2018-03-16T11:09:24.820Z,3.52
2018-03-16T11:10:24.761Z,3.51
2018-03-16T11:11:24.736Z,3.51
2018-03-16T11:12:24.712Z,3.50
2018-03-16T11:13:24.690Z,3.48
2018-03-16T11:14:24.673Z,3.50
2018-03-16T11:15:24.647Z,3.48
2018-03-16T11:16:24.624Z,3.47
2018-03-16T11:17:24.602Z,3.57
2018-03-16T11:18:24.579Z,3.55
2018-03-16T11:19:24.556Z,3.51
2018-03-16T11:20:24.544Z,3.48
2018-03-16T11:21:24.515Z,3.45
2018-03-16T11:22:24.496Z,3.45
2018-03-16T11:23:24.468Z,3.35
2018-03-16T11:24:24.452Z,3.40
2018-03-16T11:25:24.425Z,3.50
2018-03-16T11:26:24.403Z,3.47
2018-03-16T11:27:24.383Z,3.42
2018-03-16T11:28:24.356Z,3.47
2018-03-16T11:29:24.335Z,3.39
2018-03-16T11:30:24.327Z,3.45
2018-03-16T11:31:24.297Z,3.47
2018-03-16T11:32:24.312Z,3.47
2018-03-16T11:33:24.246Z,3.48
2018-03-16T11:34:24.226Z,3.47
2018-03-16T11:35:24.198Z,3.50
2018-03-16T11:36:24.179Z,3.43
2018-03-16T11:37:24.155Z,3.51
2018-03-16T11:38:24.135Z,3.54
2018-03-16T11:39:24.112Z,3.50
2018-03-16T11:40:24.094Z,3.52
2018-03-16T11:41:24.067Z,3.51
2018-03-16T11:42:24.045Z,3.57
2018-03-16T11:43:24.032Z,3.57
2018-03-16T11:44:24.002Z,3.48
2018-03-16T11:45:23.981Z,3.48
2018-03-16T11:46:23.960Z,3.51
2018-03-16T11:47:23.941Z,3.50
2018-03-16T11:48:23.910Z,3.52
2018-03-16T11:49:23.898Z,3.45
2018-03-16T11:50:23.869Z,3.47
2018-03-16T11:51:23.842Z,3.48
2018-03-16T11:52:23.825Z,3.52
2018-03-16T11:53:23.802Z,3.50
2018-03-16T11:54:23.775Z,3.48
2018-03-16T11:55:23.755Z,3.47
2018-03-16T11:56:23.730Z,3.36
2018-03-16T11:57:23.715Z,3.35
2018-03-16T11:58:23.689Z,3.35
2018-03-16T11:59:23.670Z,3.33
2018-03-16T12:00:23.645Z,3.40
2018-03-16T12:01:23.620Z,3.39
2018-03-16T12:02:23.599Z,3.39
2018-03-16T12:03:23.582Z,3.45
2018-03-16T12:04:23.561Z,3.52
2018-03-16T12:05:23.534Z,3.43
2018-03-16T12:06:23.510Z,3.52
2018-03-16T12:07:23.497Z,3.39
2018-03-16T12:08:23.466Z,3.45
2018-03-16T12:09:23.456Z,3.52
2018-03-16T12:10:23.424Z,3.45
2018-03-16T12:11:23.398Z,3.35
2018-03-16T12:12:23.375Z,3.39
2018-03-16T12:13:23.357Z,3.47
2018-03-16T12:14:23.335Z,3.45
2018-03-16T12:15:23.313Z,3.48
2018-03-16T12:16:23.289Z,3.43
2018-03-16T12:17:23.266Z,3.43
2018-03-16T12:18:23.247Z,3.35
2018-03-16T12:19:23.221Z,3.51
2018-03-16T12:20:23.198Z,3.39
2018-03-16T12:21:23.175Z,3.35
2018-03-16T12:22:23.155Z,3.39
2018-03-16T12:23:23.131Z,3.48
2018-03-16T12:24:23.122Z,3.42
2018-03-16T12:25:23.095Z,3.48
2018-03-16T12:26:23.065Z,3.36
2018-03-16T12:27:23.043Z,3.39
2018-03-16T12:28:23.023Z,3.33
2018-03-16T12:29:22.996Z,3.35
2018-03-16T12:30:22.977Z,3.35
2018-03-16T12:31:22.965Z,3.39
2018-03-16T12:32:22.930Z,3.28
2018-03-16T12:33:22.908Z,3.28
2018-03-16T12:34:22.891Z,3.23
2018-03-16T12:35:22.897Z,3.23
2018-03-16T12:36:22.845Z,3.15
2018-03-16T12:37:22.830Z,3.11
2018-03-16T12:38:22.799Z,3.11
2018-03-16T12:39:22.776Z,3.02
2018-03-16T12:40:22.755Z,3.08
2018-03-16T12:41:22.736Z,3.15
2018-03-16T12:42:22.712Z,3.08
2018-03-16T12:43:22.691Z,3.24
2018-03-16T12:44:22.671Z,3.21
2018-03-16T12:45:22.648Z,3.28
2018-03-16T12:46:22.619Z,3.17
2018-03-16T12:47:22.598Z,3.21
2018-03-16T12:48:22.583Z,3.33
2018-03-16T12:49:22.562Z,3.24
2018-03-16T12:50:22.531Z,3.24
2018-03-16T12:51:22.510Z,3.26
2018-03-16T12:52:22.487Z,3.32
2018-03-16T12:53:22.468Z,3.45
2018-03-16T12:54:22.446Z,3.43
2018-03-16T12:55:22.418Z,3.45
2018-03-16T12:56:22.397Z,3.36
2018-03-16T12:57:22.378Z,3.40
2018-03-16T12:58:22.357Z,3.36
2018-03-16T12:59:22.340Z,3.39
2018-03-16T13:00:22.305Z,3.15
2018-03-16T13:01:22.285Z,3.20
2018-03-16T13:02:22.265Z,3.21
2018-03-16T13:03:22.248Z,3.08
2018-03-16T13:04:22.233Z,3.11
2018-03-16T13:05:22.198Z,3.13
2018-03-16T13:06:22.173Z,3.08
2018-03-16T13:07:22.149Z,3.02
2018-03-16T13:08:22.140Z,3.02
2018-03-16T13:09:22.105Z,3.06
2018-03-16T13:10:22.082Z,3.02
2018-03-16T13:11:22.097Z,3.08
2018-03-16T13:12:22.041Z,3.15
2018-03-16T13:13:22.015Z,3.18
2018-03-16T13:14:22.004Z,3.17
2018-03-16T13:15:21.980Z,3.02
2018-03-16T13:16:21.950Z,3.10
2018-03-16T13:17:21.929Z,3.08
2018-03-16T13:18:21.905Z,3.13
2018-03-16T13:19:21.917Z,3.17